createdAt,value
2023-03-27T05:46:03.545Z,99.90
2023-03-27T05:51:09.747Z,99.90
2023-03-27T05:56:15.125Z,99.90
2023-03-27T06:01:23.406Z,99.90
2023-03-27T06:06:29.005Z,99.90
2023-03-27T06:11:34.180Z,99.90
2023-03-27T06:16:42.097Z,99.90
2023-03-27T06:21:47.952Z,99.90
2023-03-27T06:26:53.968Z,99.90
2023-03-27T06:32:02.843Z,99.90
2023-03-27T06:37:08.334Z,99.20
2023-03-27T06:42:13.646Z,98.40
2023-03-27T06:47:22.069Z,97.00
2023-03-27T06:52:27.821Z,89.80
2023-03-27T06:57:33.106Z,77.70
2023-03-27T07:02:41.404Z,74.80
2023-03-27T17:47:16.136Z,68.20
2023-03-27T17:52:23.597Z,68.00
2023-03-27T17:57:29.808Z,68.50
2023-03-27T18:02:38.854Z,68.80
2023-03-27T18:07:44.745Z,68.80
2023-03-27T18:12:50.192Z,68.70
2023-03-27T18:17:58.147Z,68.80
2023-03-27T18:23:04.140Z,69.30
2023-03-27T18:28:09.502Z,69.70
2023-03-27T18:33:17.603Z,70.10
2023-03-27T18:38:23.202Z,70.40
2023-03-27T18:43:28.577Z,70.40
2023-03-27T18:48:36.798Z,70.30
2023-03-27T18:53:42.248Z,70.10
2023-03-27T18:58:47.598Z,70.40
2023-03-27T19:03:55.491Z,70.60
2023-03-27T19:09:01.033Z,70.80
2023-03-27T19:14:06.551Z,71.30
2023-03-27T19:19:14.785Z,71.40
2023-03-27T19:24:20.128Z,72.40
2023-03-27T19:29:25.965Z,71.80
2023-03-27T19:34:42.542Z,72.00
2023-03-27T19:39:48.525Z,72.30
2023-03-27T19:44:53.755Z,72.80
2023-03-27T19:50:02.010Z,73.20
2023-03-27T19:55:08.128Z,73.70
2023-03-27T20:00:15.960Z,74.20
2023-03-27T20:05:23.972Z,75.50
2023-03-27T20:10:29.484Z,75.00
2023-03-27T20:15:35.003Z,75.40
